TimeCDT,TemperatureF,Dew PointF,Humidity,Sea Level PressureIn,VisibilityMPH,Wind Direction,Wind SpeedMPH,Gust SpeedMPH,PrecipitationIn,Events,Conditions,WindDirDegrees,DateUTC
12:53 AM,55.0,52.0,89,29.74,5.0,North,5.8,-,N/A,,Clear,350,2012-10-02 05:53:00
1:53 AM,53.1,52.0,96,29.74,9.0,WNW,4.6,-,N/A,,Clear,300,2012-10-02 06:53:00
2:53 AM,53.1,52.0,96,29.74,10.0,NNW,5.8,-,N/A,,Mostly Cloudy,330,2012-10-02 07:53:00
3:53 AM,53.1,51.1,93,29.75,10.0,NNW,5.8,-,N/A,,Clear,330,2012-10-02 08:53:00
4:53 AM,51.1,48.9,92,29.76,10.0,NNW,4.6,-,N/A,,Clear,330,2012-10-02 09:53:00
5:53 AM,50.0,48.0,93,29.78,10.0,NNW,5.8,-,N/A,,Clear,330,2012-10-02 10:53:00
6:53 AM,50.0,48.0,93,29.80,10.0,WNW,5.8,-,N/A,,Clear,300,2012-10-02 11:53:00
7:53 AM,52.0,48.0,86,29.82,10.0,NW,6.9,-,N/A,,Clear,310,2012-10-02 12:53:00
8:53 AM,55.9,48.9,77,29.83,10.0,NW,9.2,-,N/A,,Clear,320,2012-10-02 13:53:00
9:53 AM,62.1,50.0,65,29.85,10.0,NW,9.2,-,N/A,,Clear,320,2012-10-02 14:53:00
10:53 AM,64.9,48.9,56,29.86,10.0,NW,9.2,-,0.22,,Clear,320,2012-10-02 15:53:00
11:53 AM,69.1,48.9,49,29.85,10.0,NNW,12.7,16.1,N/A,,Clear,340,2012-10-02 16:53:00
12:53 PM,72.0,48.0,43,29.85,10.0,NNW,8.1,-,N/A,,Clear,340,2012-10-02 17:53:00
1:53 PM,71.1,46.9,42,29.84,10.0,West,4.6,-,N/A,,Clear,270,2012-10-02 18:53:00
2:53 PM,73.0,46.0,38,29.83,10.0,West,6.9,-,N/A,,Clear,280,2012-10-02 19:53:00
3:53 PM,73.0,44.1,35,29.84,10.0,West,9.2,-,N/A,,Mostly Cloudy,280,2012-10-02 20:53:00
4:53 PM,73.0,45.0,37,29.85,10.0,NNW,6.9,-,N/A,,Scattered Clouds,340,2012-10-02 21:53:00
5:53 PM,71.1,44.1,38,29.86,10.0,West,6.9,-,N/A,,Clear,260,2012-10-02 22:53:00
7:53 PM,62.1,46.9,58,29.89,10.0,Calm,Calm,-,N/A,,Clear,0,2012-10-03 00:53:00
8:53 PM,59.0,48.9,69,29.92,10.0,South,3.5,-,N/A,,Clear,180,2012-10-03 01:53:00
9:53 PM,60.1,46.9,62,29.93,10.0,SSE,4.6,-,N/A,,Clear,160,2012-10-03 02:53:00
10:53 PM,57.9,51.1,78,29.94,10.0,Calm,Calm,-,N/A,,Clear,0,2012-10-03 03:53:00
11:53 PM,55.9,51.1,84,29.94,10.0,ESE,4.6,-,N/A,,Clear,110,2012-10-03 04:53:00